createdAt,value
2022-08-20T00:01:09.218Z,2.80
2022-08-20T00:03:44.611Z,2.67
2022-08-20T00:06:15.527Z,3.10
2022-08-20T00:08:43.289Z,3.50
2022-08-20T00:11:13.060Z,2.67
2022-08-20T00:13:43.550Z,3.40
2022-08-20T00:16:11.682Z,4.63
2022-08-20T00:18:38.819Z,4.72
2022-08-20T00:21:08.693Z,5.60
2022-08-20T00:23:43.492Z,6.53
2022-08-20T00:26:11.137Z,8.18
2022-08-20T00:28:38.543Z,8.40
2022-08-20T00:31:07.325Z,10.02
2022-08-20T00:33:34.295Z,10.35
2022-08-20T00:36:06.591Z,12.10
2022-08-20T00:38:40.613Z,13.10
2022-08-20T00:41:10.395Z,13.88
2022-08-20T00:43:46.188Z,14.07
2022-08-20T00:46:18.310Z,15.40
2022-08-20T00:48:49.055Z,15.27
2022-08-20T00:51:27.054Z,14.80
2022-08-20T00:54:04.801Z,15.27
2022-08-20T00:56:33.928Z,15.23
2022-08-20T00:59:02.605Z,15.68
2022-08-20T01:01:29.606Z,14.85
2022-08-20T01:03:56.849Z,12.88
2022-08-20T01:06:25.236Z,12.68
2022-08-20T01:08:52.268Z,12.23
2022-08-20T01:11:22.482Z,10.95
2022-08-20T01:13:49.665Z,11.93
2022-08-20T01:16:24.819Z,9.77
2022-08-20T01:18:57.500Z,9.93
2022-08-20T01:21:28.232Z,10.32
2022-08-20T01:24:11.949Z,10.70
2022-08-20T01:26:43.688Z,10.13
2022-08-20T01:29:25.452Z,9.68
2022-08-20T01:31:52.112Z,8.55
2022-08-20T01:34:20.285Z,9.45
2022-08-20T01:36:51.832Z,6.80
2022-08-20T01:39:25.084Z,6.95
2022-08-20T01:42:13.626Z,6.35
2022-08-20T01:44:43.199Z,6.30
2022-08-20T01:47:16.176Z,6.93
2022-08-20T01:49:46.547Z,6.03
2022-08-20T01:52:38.668Z,6.18
2022-08-20T01:55:05.860Z,5.90
2022-08-20T01:57:34.989Z,5.70
2022-08-20T02:00:19.086Z,5.82
2022-08-20T02:02:46.853Z,7.35
2022-08-20T02:05:13.621Z,5.85
2022-08-20T02:07:40.609Z,5.18
2022-08-20T02:10:10.640Z,6.35
2022-08-20T02:12:37.472Z,6.03
2022-08-20T02:15:05.240Z,5.20
2022-08-20T02:17:31.814Z,5.55
2022-08-20T02:20:03.548Z,5.07
2022-08-20T02:22:50.306Z,5.43
2022-08-20T02:25:19.400Z,5.55
2022-08-20T02:27:48.692Z,5.60
2022-08-20T02:30:28.151Z,6.13
2022-08-20T02:32:56.986Z,5.68
2022-08-20T02:35:25.098Z,6.07
2022-08-20T02:37:52.025Z,5.82
2022-08-20T02:40:30.245Z,5.85
2022-08-20T02:43:01.667Z,5.70
2022-08-20T02:45:29.895Z,6.25
2022-08-20T02:47:57.555Z,5.93
2022-08-20T02:50:26.143Z,6.30
2022-08-20T02:52:53.104Z,6.90
2022-08-20T02:55:27.408Z,7.90
2022-08-20T02:57:58.508Z,7.95
2022-08-20T03:00:26.781Z,9.05
2022-08-20T03:02:53.681Z,8.35
2022-08-20T03:05:20.468Z,9.23
2022-08-20T03:07:53.357Z,9.68
2022-08-20T03:10:32.216Z,10.23
2022-08-20T03:13:00.848Z,9.75
2022-08-20T03:15:32.161Z,9.93
2022-08-20T03:17:59.350Z,9.95
2022-08-20T03:20:27.047Z,10.93
2022-08-20T03:22:53.947Z,11.68
2022-08-20T03:25:21.053Z,12.95
2022-08-20T03:27:54.011Z,12.35
2022-08-20T03:30:22.852Z,12.07
2022-08-20T03:32:50.080Z,12.65
2022-08-20T03:35:18.893Z,13.00
2022-08-20T03:37:48.421Z,14.20
2022-08-20T03:40:20.473Z,13.80
2022-08-20T03:42:47.161Z,15.82
2022-08-20T03:45:17.208Z,14.45
2022-08-20T03:47:47.356Z,15.25
2022-08-20T03:50:22.749Z,14.25
2022-08-20T03:52:53.856Z,16.55
2022-08-20T03:55:22.168Z,15.85
2022-08-20T03:57:52.214Z,16.17
2022-08-20T04:00:29.445Z,16.83
2022-08-20T04:02:57.103Z,16.45
2022-08-20T04:05:25.372Z,17.02
2022-08-20T04:07:56.870Z,17.25
2022-08-20T04:10:29.699Z,16.95
2022-08-20T04:12:56.347Z,19.77
2022-08-20T04:15:24.530Z,20.23
2022-08-20T04:17:52.645Z,20.23
2022-08-20T04:20:26.076Z,20.55
2022-08-20T04:22:58.712Z,20.48
2022-08-20T04:25:28.416Z,20.05
2022-08-20T04:27:58.195Z,21.52
2022-08-20T04:30:26.858Z,22.35
2022-08-20T04:32:54.317Z,21.08
2022-08-20T04:35:21.251Z,21.73
2022-08-20T04:37:48.263Z,19.92
2022-08-20T04:40:36.556Z,19.80
2022-08-20T04:43:04.991Z,20.80
2022-08-20T04:45:32.957Z,23.00
2022-08-20T04:48:06.324Z,22.50
2022-08-20T04:50:35.684Z,22.27
2022-08-20T04:53:07.757Z,23.95
2022-08-20T04:55:35.966Z,20.42
2022-08-20T04:58:07.180Z,21.42
2022-08-20T05:00:33.943Z,21.70
2022-08-20T05:03:00.741Z,22.15
2022-08-20T05:05:28.400Z,21.17
2022-08-20T05:07:55.622Z,24.17
2022-08-20T05:10:24.273Z,23.50
2022-08-20T05:12:56.624Z,24.30
2022-08-20T05:15:24.786Z,25.42
2022-08-20T05:17:57.311Z,23.63
2022-08-20T05:20:24.185Z,22.25
2022-08-20T05:22:52.271Z,21.13
2022-08-20T05:25:18.978Z,23.80
2022-08-20T05:27:54.967Z,22.17
2022-08-20T05:34:34.103Z,21.42
2022-08-20T05:40:55.361Z,24.83
2022-08-20T05:43:22.092Z,23.73
2022-08-20T05:45:56.539Z,22.33
2022-08-20T05:48:25.383Z,23.42
2022-08-20T05:50:54.370Z,22.52
2022-08-20T05:53:23.537Z,21.65
2022-08-20T05:55:50.873Z,23.13
2022-08-20T05:58:22.394Z,23.27
2022-08-20T06:00:50.938Z,21.77
2022-08-20T06:03:36.401Z,22.85
2022-08-20T06:06:04.453Z,21.85
2022-08-20T06:08:44.848Z,20.80
2022-08-20T06:11:11.526Z,21.52
2022-08-20T06:13:38.192Z,18.65
2022-08-20T06:16:21.731Z,21.45
2022-08-20T06:18:58.096Z,18.13
2022-08-20T06:21:50.475Z,14.88
2022-08-20T06:24:17.228Z,16.05
2022-08-20T06:26:43.914Z,13.50
2022-08-20T06:29:10.505Z,13.48
2022-08-20T06:31:43.237Z,13.13
2022-08-20T06:38:00.362Z,10.30
2022-08-20T06:40:28.568Z,10.32
2022-08-20T06:42:56.634Z,9.13
2022-08-20T06:45:29.118Z,9.25
2022-08-20T06:47:59.228Z,8.65
2022-08-20T06:50:32.464Z,7.50
2022-08-20T06:52:59.725Z,7.80
2022-08-20T06:55:27.484Z,7.00
2022-08-20T06:58:05.868Z,6.45
2022-08-20T07:00:35.015Z,6.95
2022-08-20T07:03:03.582Z,6.55
2022-08-20T07:05:32.757Z,6.22
2022-08-20T07:08:00.857Z,6.88
2022-08-20T07:10:29.132Z,6.45
2022-08-20T07:12:59.187Z,8.88
2022-08-20T07:15:27.226Z,6.72
2022-08-20T07:18:00.868Z,6.75
2022-08-20T07:20:29.821Z,6.93
2022-08-20T07:22:57.438Z,6.85
2022-08-20T07:25:24.870Z,8.32
2022-08-20T07:27:52.120Z,9.30
2022-08-20T07:30:57.029Z,6.28
2022-08-20T07:33:26.054Z,7.10
2022-08-20T07:35:59.190Z,7.93
2022-08-20T07:38:29.460Z,7.30
2022-08-20T07:41:02.153Z,7.28
2022-08-20T07:43:29.459Z,6.18
2022-08-20T07:45:58.816Z,7.10
2022-08-20T07:48:30.871Z,10.27
2022-08-20T07:51:04.310Z,4.38
2022-08-20T07:53:35.998Z,8.05
2022-08-20T07:56:07.196Z,7.38
2022-08-20T07:58:35.851Z,6.88
2022-08-20T08:01:03.437Z,4.85
2022-08-20T08:03:40.505Z,4.95
2022-08-20T08:06:17.287Z,5.57
2022-08-20T08:08:56.961Z,4.88
2022-08-20T08:11:23.654Z,7.47
2022-08-20T08:13:50.401Z,5.15
2022-08-20T08:16:17.780Z,6.07
2022-08-20T08:18:50.101Z,5.97
2022-08-20T08:21:18.385Z,5.32
2022-08-20T08:23:45.373Z,5.90
2022-08-20T08:26:17.873Z,5.03
2022-08-20T08:28:45.609Z,7.85
2022-08-20T08:31:13.635Z,6.30
2022-08-20T08:33:41.098Z,4.72
2022-08-20T08:36:15.332Z,6.75
2022-08-20T08:38:44.187Z,9.55
2022-08-20T08:41:26.408Z,6.20
2022-08-20T08:43:54.568Z,6.32
2022-08-20T08:46:26.988Z,3.47
2022-08-20T08:48:57.922Z,6.10
2022-08-20T08:51:37.257Z,8.02
2022-08-20T08:54:07.289Z,7.00
2022-08-20T08:56:35.002Z,4.13
2022-08-20T08:59:05.569Z,5.90
2022-08-20T09:01:54.055Z,4.80
2022-08-20T09:04:24.239Z,4.18
2022-08-20T09:06:53.462Z,4.55
2022-08-20T09:09:29.256Z,4.25
2022-08-20T09:12:04.858Z,3.45
2022-08-20T09:14:35.564Z,4.63
2022-08-20T09:17:13.591Z,4.50
2022-08-20T09:19:46.179Z,4.82
2022-08-20T09:22:16.301Z,5.82
2022-08-20T09:24:44.173Z,5.28
2022-08-20T09:27:11.401Z,4.13
2022-08-20T09:29:38.622Z,2.38
2022-08-20T09:32:11.980Z,5.00
2022-08-20T09:34:45.623Z,2.38
2022-08-20T09:37:16.291Z,3.33
2022-08-20T09:39:43.493Z,5.75
2022-08-20T09:42:15.918Z,2.85
2022-08-20T09:44:44.796Z,4.35
2022-08-20T09:47:14.069Z,3.35
2022-08-20T09:49:41.228Z,2.15
2022-08-20T09:52:14.585Z,2.70
2022-08-20T09:54:42.309Z,4.53
2022-08-20T09:57:15.232Z,2.80
2022-08-20T09:59:42.579Z,2.45
2022-08-20T10:02:09.564Z,2.15
2022-08-20T10:04:36.655Z,3.42
2022-08-20T10:07:07.693Z,3.75
2022-08-20T10:09:37.302Z,3.67
2022-08-20T10:12:06.451Z,2.58
2022-08-20T10:14:34.213Z,3.35
2022-08-20T10:17:06.032Z,2.80
2022-08-20T10:19:38.885Z,3.22
2022-08-20T10:22:06.002Z,2.78
2022-08-20T10:24:33.885Z,3.97
2022-08-20T10:27:03.262Z,3.10
2022-08-20T10:35:27.750Z,3.35
2022-08-20T10:37:54.371Z,3.85
2022-08-20T10:40:21.314Z,3.70
2022-08-20T10:42:48.141Z,3.47
2022-08-20T10:45:16.096Z,2.92
2022-08-20T10:47:42.970Z,3.97
2022-08-20T10:50:14.395Z,4.68
2022-08-20T10:52:41.045Z,3.17
2022-08-20T10:55:08.091Z,3.10
2022-08-20T10:57:34.807Z,2.33
2022-08-20T11:00:01.745Z,4.32
2022-08-20T11:02:29.623Z,3.75
2022-08-20T11:04:56.376Z,3.28
2022-08-20T11:07:50.678Z,3.25
2022-08-20T11:10:19.153Z,2.08
2022-08-20T11:12:46.627Z,2.78
2022-08-20T11:15:14.213Z,2.15
2022-08-20T11:17:42.289Z,2.22
2022-08-20T11:20:11.636Z,3.95
2022-08-20T11:22:38.301Z,2.60
2022-08-20T11:25:06.376Z,3.55
2022-08-20T11:27:40.199Z,3.25
2022-08-20T11:30:10.100Z,3.53
2022-08-20T11:32:37.207Z,3.45
2022-08-20T11:35:24.468Z,3.95
2022-08-20T11:37:53.209Z,4.38
2022-08-20T11:40:20.492Z,4.15
2022-08-20T11:43:13.069Z,3.10
2022-08-20T11:45:37.606Z,3.58
2022-08-20T11:48:05.100Z,3.17
2022-08-20T11:50:31.899Z,2.40
2022-08-20T11:52:58.719Z,2.70
2022-08-20T11:55:30.237Z,3.92
2022-08-20T11:57:59.981Z,2.05
2022-08-20T12:00:32.153Z,3.50
2022-08-20T12:03:01.245Z,3.20
2022-08-20T12:05:29.494Z,2.10
2022-08-20T12:07:56.590Z,3.22
2022-08-20T12:10:24.447Z,2.58
2022-08-20T12:12:51.485Z,2.47
2022-08-20T12:15:18.381Z,2.78
2022-08-20T12:17:44.973Z,4.55
2022-08-20T12:20:13.789Z,4.07
2022-08-20T12:22:41.219Z,3.83
2022-08-20T12:25:09.193Z,4.07
2022-08-20T12:27:37.312Z,3.95
2022-08-20T12:30:08.467Z,3.05
2022-08-20T12:32:35.540Z,1.48
2022-08-20T12:35:02.997Z,4.18
2022-08-20T12:37:31.322Z,4.22
2022-08-20T12:40:00.467Z,3.03
2022-08-20T12:42:29.248Z,2.70
2022-08-20T12:44:56.241Z,4.60
2022-08-20T12:47:26.080Z,3.15
2022-08-20T12:50:00.974Z,4.50
2022-08-20T12:52:30.398Z,2.47
2022-08-20T12:54:58.061Z,4.97
2022-08-20T12:57:32.173Z,2.63
2022-08-20T13:00:03.878Z,4.13
2022-08-20T13:02:32.184Z,2.90
2022-08-20T13:05:04.343Z,3.53
2022-08-20T13:07:32.160Z,2.75
2022-08-20T13:09:59.327Z,3.20
2022-08-20T13:12:26.036Z,6.97
2022-08-20T13:14:52.641Z,8.18
2022-08-20T13:17:20.274Z,2.90
2022-08-20T13:19:59.367Z,2.28
2022-08-20T13:22:26.018Z,4.15
2022-08-20T13:24:53.460Z,4.13
2022-08-20T13:27:20.384Z,2.22
2022-08-20T13:29:58.212Z,3.08
2022-08-20T13:32:25.572Z,2.00
2022-08-20T13:34:52.182Z,3.05
2022-08-20T13:37:25.279Z,2.30
2022-08-20T13:39:53.614Z,4.32
2022-08-20T13:42:21.037Z,3.80
2022-08-20T13:44:48.435Z,2.90
2022-08-20T13:47:21.143Z,2.70
2022-08-20T13:49:49.378Z,3.05
2022-08-20T13:52:17.055Z,4.90
2022-08-20T13:54:43.807Z,1.75
2022-08-20T13:57:14.053Z,4.05
2022-08-20T13:59:43.163Z,4.20
2022-08-20T14:02:11.396Z,4.43
2022-08-20T14:04:38.821Z,2.08
2022-08-20T14:07:25.245Z,1.10
2022-08-20T14:09:57.233Z,2.65
2022-08-20T14:12:24.865Z,2.38
2022-08-20T14:14:52.905Z,2.38
2022-08-20T14:17:21.260Z,3.58
2022-08-20T14:19:49.349Z,2.70
2022-08-20T14:22:19.415Z,2.95
2022-08-20T14:24:48.760Z,2.17
2022-08-20T14:27:16.951Z,4.05
2022-08-20T14:29:45.078Z,2.70
2022-08-20T14:32:12.669Z,2.63
2022-08-20T14:34:40.193Z,1.92
2022-08-20T14:37:12.214Z,2.60
2022-08-20T14:39:39.036Z,2.58
2022-08-20T14:42:06.335Z,2.97
2022-08-20T14:44:32.968Z,4.25
2022-08-20T14:47:11.361Z,2.88
2022-08-20T14:49:38.420Z,2.67
2022-08-20T14:52:06.235Z,1.65
2022-08-20T14:54:33.045Z,4.13
2022-08-20T14:57:02.089Z,1.98
2022-08-20T14:59:28.898Z,4.35
2022-08-20T15:01:55.493Z,2.15
2022-08-20T15:04:23.590Z,2.35
2022-08-20T15:06:54.481Z,3.13
2022-08-20T15:09:21.428Z,3.30
2022-08-20T15:11:48.588Z,2.47
2022-08-20T15:14:15.341Z,3.42
2022-08-20T15:16:45.300Z,2.75
2022-08-20T15:19:11.972Z,3.17
2022-08-20T15:21:45.390Z,2.60
2022-08-20T15:24:15.721Z,1.85
2022-08-20T15:26:45.904Z,3.92
2022-08-20T15:29:12.788Z,2.03
2022-08-20T15:31:49.827Z,3.67
2022-08-20T15:34:17.626Z,2.20
2022-08-20T15:36:44.924Z,3.15
2022-08-20T15:39:11.689Z,3.92
2022-08-20T15:41:38.487Z,1.98
2022-08-20T15:44:05.986Z,3.10
2022-08-20T15:46:36.116Z,3.63
2022-08-20T15:49:11.396Z,3.63
2022-08-20T15:51:45.161Z,5.13
2022-08-20T15:54:23.155Z,2.28
2022-08-20T15:57:03.235Z,4.18
2022-08-20T15:59:48.752Z,2.92
2022-08-20T16:02:40.956Z,4.18
2022-08-20T16:05:24.457Z,4.55
2022-08-20T16:08:29.234Z,2.25
2022-08-20T16:11:13.472Z,3.10
2022-08-20T16:14:02.856Z,3.00
2022-08-20T16:16:35.740Z,3.28
2022-08-20T16:19:03.054Z,3.90
2022-08-20T16:21:33.740Z,3.45
2022-08-20T16:24:00.765Z,2.75
2022-08-20T16:26:52.449Z,3.40
2022-08-20T16:29:28.751Z,2.42
2022-08-20T16:32:18.884Z,2.72
2022-08-20T16:34:59.235Z,2.45
2022-08-20T16:37:52.897Z,1.90
2022-08-20T16:40:49.366Z,3.42
2022-08-20T16:43:21.308Z,2.20
2022-08-20T16:45:53.883Z,2.15
2022-08-20T16:48:20.922Z,3.55
2022-08-20T16:50:58.101Z,3.33
2022-08-20T16:53:26.391Z,2.88
2022-08-20T16:55:54.313Z,4.22
2022-08-20T16:58:21.068Z,2.78
2022-08-20T17:00:47.907Z,3.35
2022-08-20T17:03:31.442Z,3.90
2022-08-20T17:06:01.010Z,3.72
2022-08-20T17:08:35.097Z,2.70
2022-08-20T17:11:17.208Z,2.83
2022-08-20T17:13:47.360Z,2.80
2022-08-20T17:16:13.957Z,5.65
2022-08-20T17:18:49.928Z,5.18
2022-08-20T17:21:26.115Z,3.25
2022-08-20T17:24:02.026Z,4.07
2022-08-20T17:26:35.824Z,2.75
2022-08-20T17:29:18.900Z,3.58
2022-08-20T17:31:52.934Z,2.88
2022-08-20T17:34:26.564Z,5.38
2022-08-20T17:37:19.454Z,7.00
2022-08-20T17:39:53.104Z,3.92
2022-08-20T17:42:26.991Z,2.25
2022-08-20T17:45:18.278Z,3.72
2022-08-20T17:47:45.017Z,4.22
2022-08-20T17:50:29.466Z,4.97
2022-08-20T17:53:00.965Z,3.35
2022-08-20T17:55:32.406Z,2.33
2022-08-20T17:58:03.018Z,5.20
2022-08-20T18:00:29.685Z,2.47
2022-08-20T18:03:04.981Z,2.55
2022-08-20T18:05:34.864Z,3.35
2022-08-20T18:08:20.423Z,4.15
2022-08-20T18:11:00.932Z,3.33
2022-08-20T18:14:04.710Z,2.83
2022-08-20T18:17:03.089Z,4.47
2022-08-20T18:20:04.035Z,3.88
2022-08-20T18:22:33.684Z,3.28
2022-08-20T18:25:09.684Z,1.95
2022-08-20T18:27:42.468Z,2.70
2022-08-20T18:30:21.251Z,2.72
2022-08-20T18:32:50.679Z,1.85
2022-08-20T18:35:45.577Z,2.33
2022-08-20T18:38:30.006Z,4.05
2022-08-20T18:41:30.767Z,2.90
2022-08-20T18:44:06.322Z,4.65
2022-08-20T18:46:33.776Z,4.28
2022-08-20T18:49:03.784Z,2.28
2022-08-20T18:51:50.872Z,3.75
2022-08-20T18:54:31.813Z,3.10
2022-08-20T18:57:17.561Z,1.67
2022-08-20T18:59:50.401Z,4.97
2022-08-20T19:02:26.688Z,2.92
2022-08-20T19:05:02.338Z,4.47
2022-08-20T19:07:48.334Z,3.13
2022-08-20T19:10:33.668Z,4.70
2022-08-20T19:13:15.517Z,3.90
2022-08-20T19:15:48.094Z,3.97
2022-08-20T19:18:25.264Z,4.07
2022-08-20T19:21:25.599Z,3.75
2022-08-20T19:23:55.916Z,3.88
2022-08-20T19:26:25.397Z,4.53
2022-08-20T19:29:00.351Z,1.42
2022-08-20T19:31:31.129Z,4.82
2022-08-20T19:34:21.807Z,3.03
2022-08-20T19:36:57.359Z,4.43
2022-08-20T19:39:25.698Z,2.35
2022-08-20T19:41:55.554Z,5.03
2022-08-20T19:44:34.895Z,3.50
2022-08-20T19:47:03.370Z,1.73
2022-08-20T19:49:37.386Z,1.77
2022-08-20T19:52:28.745Z,3.30
2022-08-20T19:55:01.284Z,4.03
2022-08-20T19:57:30.356Z,3.50
2022-08-20T20:00:00.103Z,2.00
2022-08-20T20:02:31.147Z,4.45
2022-08-20T20:04:58.310Z,4.72
2022-08-20T20:07:35.803Z,3.80
2022-08-20T20:10:04.828Z,2.95
2022-08-20T20:12:33.339Z,2.97
2022-08-20T20:15:00.297Z,3.85
2022-08-20T20:17:36.375Z,2.30
2022-08-20T20:20:28.336Z,4.18
2022-08-20T20:23:00.141Z,3.20
2022-08-20T20:25:31.012Z,3.97
2022-08-20T20:28:08.851Z,4.03
2022-08-20T20:30:37.201Z,1.95
2022-08-20T20:33:31.973Z,3.35
2022-08-20T20:36:08.785Z,2.55
2022-08-20T20:38:38.430Z,3.53
2022-08-20T20:41:17.621Z,2.50
2022-08-20T20:43:44.763Z,3.60
2022-08-20T20:46:22.408Z,2.70
2022-08-20T20:49:10.896Z,3.05
2022-08-20T20:51:41.300Z,3.70
2022-08-20T20:54:34.975Z,4.15
2022-08-20T20:57:05.428Z,3.25
2022-08-20T20:59:34.596Z,3.05
2022-08-20T21:02:02.044Z,5.55
2022-08-20T21:04:28.857Z,4.18
2022-08-20T21:06:57.947Z,3.70
2022-08-20T21:09:25.759Z,4.63
2022-08-20T21:11:52.335Z,3.60
2022-08-20T21:14:19.183Z,2.08
2022-08-20T21:16:45.936Z,3.60
2022-08-20T21:19:12.815Z,3.78
2022-08-20T21:21:39.783Z,5.10
2022-08-20T21:24:07.860Z,3.78
2022-08-20T21:26:35.143Z,5.10
2022-08-20T21:29:02.117Z,3.83
2022-08-20T21:31:33.789Z,5.40
2022-08-20T21:34:00.572Z,3.63
2022-08-20T21:36:27.209Z,4.93
2022-08-20T21:38:53.796Z,5.32
2022-08-20T21:41:30.092Z,6.07
2022-08-20T21:43:58.599Z,4.55
2022-08-20T21:46:25.893Z,5.40
2022-08-20T21:48:52.463Z,3.78
2022-08-20T21:51:19.008Z,5.45
2022-08-20T21:53:45.893Z,3.70
2022-08-20T21:56:12.604Z,4.93
2022-08-20T21:58:40.008Z,2.53
2022-08-20T22:01:07.433Z,3.35
2022-08-20T22:03:38.882Z,4.13
2022-08-20T22:06:09.520Z,4.18
2022-08-20T22:08:36.420Z,3.65
2022-08-20T22:11:03.603Z,3.63
2022-08-20T22:13:32.754Z,3.90
2022-08-20T22:16:01.211Z,4.20
2022-08-20T22:18:28.201Z,3.92
2022-08-20T22:20:55.147Z,5.60
2022-08-20T22:23:22.862Z,3.60
2022-08-20T22:25:49.928Z,4.22
2022-08-20T22:28:17.108Z,4.30
2022-08-20T22:30:44.076Z,4.05
2022-08-20T22:33:16.426Z,4.20
2022-08-20T22:35:48.590Z,2.67
2022-08-20T22:38:15.947Z,3.75
2022-08-20T22:40:43.527Z,4.40
2022-08-20T22:43:10.346Z,5.65
2022-08-20T22:45:37.901Z,3.40
2022-08-20T22:48:07.181Z,5.28
2022-08-20T22:50:34.461Z,3.25
2022-08-20T22:53:01.957Z,3.95
2022-08-20T22:55:28.693Z,4.15
2022-08-20T22:57:55.762Z,5.32
2022-08-20T23:00:24.239Z,3.10
2022-08-20T23:02:53.662Z,3.78
2022-08-20T23:05:22.269Z,2.75
2022-08-20T23:07:53.471Z,4.38
2022-08-20T23:10:21.326Z,4.82
2022-08-20T23:12:48.000Z,4.72
2022-08-20T23:15:22.349Z,2.70
2022-08-20T23:17:49.194Z,3.25
2022-08-20T23:20:17.856Z,3.70
2022-08-20T23:22:45.358Z,6.20
2022-08-20T23:25:13.555Z,3.30
2022-08-20T23:27:50.409Z,5.38
2022-08-20T23:30:19.281Z,3.40
2022-08-20T23:32:46.768Z,4.53
2022-08-20T23:35:14.043Z,4.88
2022-08-20T23:37:45.118Z,3.83
2022-08-20T23:40:14.713Z,4.50
2022-08-20T23:42:41.397Z,5.18
2022-08-20T23:45:08.935Z,6.70
2022-08-20T23:47:36.220Z,4.68
2022-08-20T23:50:05.102Z,6.20
2022-08-20T23:52:32.026Z,6.55
2022-08-20T23:54:58.642Z,3.75
2022-08-20T23:57:25.333Z,5.28
2022-08-20T23:59:53.046Z,3.85
